Terminal Aerodrome Forecast
Issued by NWS North Platte, NE

Home | Current Version | Previous Version | Text Only | Print | Product List | Glossary On
Versions: 1 2 3 4 5 6 7 8 9 10 11 12 13 14 15 16 17
978
FTUS43 KLBF 231720
TAFVTN
TAF
KVTN 231720Z 2318/2418 20014G23KT P6SM FEW250
     FM240100 17008KT P6SM FEW250
     FM240600 20006KT P6SM FEW250
     FM241500 VRB06KT P6SM FEW250=

USA.gov is the U.S. government's official web portal to all federal, state and local government web resources and services.